sensor_id;sensor_type;location;lat;lon;timestamp;P1;durP1;ratioP1;P2;durP2;ratioP2
57947;SDS011;43754;56.992;24.292;2023-04-24T00:01:45;9.35;;;3.10;;
57947;SDS011;43754;56.992;24.292;2023-04-24T00:04:17;6.03;;;3.42;;
57947;SDS011;43754;56.992;24.292;2023-04-24T00:06:49;6.63;;;2.58;;
57947;SDS011;43754;56.992;24.292;2023-04-24T00:09:26;6.13;;;3.17;;
57947;SDS011;43754;56.992;24.292;2023-04-24T00:11:58;9.18;;;4.03;;
57947;SDS011;43754;56.992;24.292;2023-04-24T00:14:31;8.02;;;3.00;;
57947;SDS011;43754;56.992;24.292;2023-04-24T00:17:03;7.10;;;2.85;;
57947;SDS011;43754;56.992;24.292;2023-04-24T00:19:36;4.47;;;2.58;;
57947;SDS011;43754;56.992;24.292;2023-04-24T00:22:08;4.43;;;2.70;;
57947;SDS011;43754;56.992;24.292;2023-04-24T00:24:41;4.75;;;2.78;;
57947;SDS011;43754;56.992;24.292;2023-04-24T00:27:13;6.13;;;2.95;;
57947;SDS011;43754;56.992;24.292;2023-04-24T00:29:45;5.38;;;2.50;;
57947;SDS011;43754;56.992;24.292;2023-04-24T00:32:17;3.30;;;2.45;;
57947;SDS011;43754;56.992;24.292;2023-04-24T00:34:49;6.25;;;2.13;;
57947;SDS011;43754;56.992;24.292;2023-04-24T00:37:21;7.63;;;2.65;;
57947;SDS011;43754;56.992;24.292;2023-04-24T00:39:55;6.85;;;2.92;;
57947;SDS011;43754;56.992;24.292;2023-04-24T00:42:27;7.25;;;2.72;;
57947;SDS011;43754;56.992;24.292;2023-04-24T00:44:59;7.55;;;2.80;;
57947;SDS011;43754;56.992;24.292;2023-04-24T00:47:32;5.97;;;2.58;;
57947;SDS011;43754;56.992;24.292;2023-04-24T00:50:05;8.55;;;2.40;;
57947;SDS011;43754;56.992;24.292;2023-04-24T00:52:38;6.60;;;3.00;;
57947;SDS011;43754;56.992;24.292;2023-04-24T00:55:14;7.18;;;2.78;;
57947;SDS011;43754;56.992;24.292;2023-04-24T00:57:46;7.70;;;2.90;;
57947;SDS011;43754;56.992;24.292;2023-04-24T01:00:19;4.95;;;2.60;;
57947;SDS011;43754;56.992;24.292;2023-04-24T01:02:53;5.75;;;2.22;;
57947;SDS011;43754;56.992;24.292;2023-04-24T01:05:27;4.07;;;2.55;;
57947;SDS011;43754;56.992;24.292;2023-04-24T01:07:59;6.00;;;3.15;;
57947;SDS011;43754;56.992;24.292;2023-04-24T01:10:34;7.68;;;2.50;;
57947;SDS011;43754;56.992;24.292;2023-04-24T01:13:08;4.65;;;2.83;;
57947;SDS011;43754;56.992;24.292;2023-04-24T01:15:40;6.47;;;2.67;;
57947;SDS011;43754;56.992;24.292;2023-04-24T01:18:12;4.25;;;2.42;;
57947;SDS011;43754;56.992;24.292;2023-04-24T01:20:44;9.73;;;2.50;;
57947;SDS011;43754;56.992;24.292;2023-04-24T01:23:19;6.07;;;3.28;;
57947;SDS011;43754;56.992;24.292;2023-04-24T01:25:51;5.80;;;2.55;;
57947;SDS011;43754;56.992;24.292;2023-04-24T01:28:24;3.65;;;2.33;;
57947;SDS011;43754;56.992;24.292;2023-04-24T01:30:56;10.60;;;3.33;;
57947;SDS011;43754;56.992;24.292;2023-04-24T01:33:28;4.28;;;2.42;;
57947;SDS011;43754;56.992;24.292;2023-04-24T01:36:00;10.15;;;2.75;;
57947;SDS011;43754;56.992;24.292;2023-04-24T01:38:34;4.53;;;2.92;;
57947;SDS011;43754;56.992;24.292;2023-04-24T01:41:06;4.13;;;2.75;;
57947;SDS011;43754;56.992;24.292;2023-04-24T01:43:38;3.78;;;2.58;;
57947;SDS011;43754;56.992;24.292;2023-04-24T01:46:10;4.60;;;2.92;;
57947;SDS011;43754;56.992;24.292;2023-04-24T01:48:42;4.82;;;2.47;;
57947;SDS011;43754;56.992;24.292;2023-04-24T01:51:16;5.57;;;2.72;;
57947;SDS011;43754;56.992;24.292;2023-04-24T01:53:49;3.45;;;2.47;;
57947;SDS011;43754;56.992;24.292;2023-04-24T01:56:21;6.75;;;2.80;;
57947;SDS011;43754;56.992;24.292;2023-04-24T01:58:54;6.18;;;2.78;;
57947;SDS011;43754;56.992;24.292;2023-04-24T02:01:31;4.00;;;2.88;;
57947;SDS011;43754;56.992;24.292;2023-04-24T02:04:05;7.65;;;3.15;;
57947;SDS011;43754;56.992;24.292;2023-04-24T02:06:39;5.32;;;2.70;;
57947;SDS011;43754;56.992;24.292;2023-04-24T02:09:13;7.78;;;3.28;;
57947;SDS011;43754;56.992;24.292;2023-04-24T02:11:45;6.35;;;2.63;;
57947;SDS011;43754;56.992;24.292;2023-04-24T02:14:17;3.90;;;2.42;;
57947;SDS011;43754;56.992;24.292;2023-04-24T02:16:49;7.55;;;2.40;;
57947;SDS011;43754;56.992;24.292;2023-04-24T02:19:21;4.60;;;2.40;;
57947;SDS011;43754;56.992;24.292;2023-04-24T02:21:54;6.65;;;2.63;;
57947;SDS011;43754;56.992;24.292;2023-04-24T02:24:28;6.07;;;2.90;;
57947;SDS011;43754;56.992;24.292;2023-04-24T02:27:00;5.78;;;2.67;;
57947;SDS011;43754;56.992;24.292;2023-04-24T02:29:34;5.18;;;3.08;;
57947;SDS011;43754;56.992;24.292;2023-04-24T02:32:07;6.40;;;2.78;;
57947;SDS011;43754;56.992;24.292;2023-04-24T02:34:43;5.82;;;3.03;;
57947;SDS011;43754;56.992;24.292;2023-04-24T02:37:16;7.00;;;2.63;;
57947;SDS011;43754;56.992;24.292;2023-04-24T02:39:49;5.97;;;2.90;;
57947;SDS011;43754;56.992;24.292;2023-04-24T02:42:22;5.85;;;2.97;;
57947;SDS011;43754;56.992;24.292;2023-04-24T02:44:54;4.28;;;2.33;;
57947;SDS011;43754;56.992;24.292;2023-04-24T02:47:26;6.47;;;2.97;;
57947;SDS011;43754;56.992;24.292;2023-04-24T02:49:59;4.72;;;2.67;;
57947;SDS011;43754;56.992;24.292;2023-04-24T02:52:31;7.47;;;2.60;;
57947;SDS011;43754;56.992;24.292;2023-04-24T02:55:05;3.60;;;2.33;;
57947;SDS011;43754;56.992;24.292;2023-04-24T02:57:39;6.20;;;2.40;;
57947;SDS011;43754;56.992;24.292;2023-04-24T03:00:11;7.32;;;2.60;;
57947;SDS011;43754;56.992;24.292;2023-04-24T03:02:44;7.82;;;2.83;;
57947;SDS011;43754;56.992;24.292;2023-04-24T03:05:17;4.75;;;2.97;;
57947;SDS011;43754;56.992;24.292;2023-04-24T03:07:49;4.93;;;2.78;;
57947;SDS011;43754;56.992;24.292;2023-04-24T03:10:22;4.88;;;2.60;;
57947;SDS011;43754;56.992;24.292;2023-04-24T03:12:54;8.88;;;3.05;;
57947;SDS011;43754;56.992;24.292;2023-04-24T03:15:26;3.40;;;2.47;;
57947;SDS011;43754;56.992;24.292;2023-04-24T03:17:59;3.03;;;2.28;;
57947;SDS011;43754;56.992;24.292;2023-04-24T03:20:32;7.50;;;2.70;;
57947;SDS011;43754;56.992;24.292;2023-04-24T03:23:04;5.07;;;2.50;;
57947;SDS011;43754;56.992;24.292;2023-04-24T03:25:37;4.03;;;2.40;;
57947;SDS011;43754;56.992;24.292;2023-04-24T03:28:10;4.22;;;2.47;;
57947;SDS011;43754;56.992;24.292;2023-04-24T03:30:57;4.20;;;2.70;;
57947;SDS011;43754;56.992;24.292;2023-04-24T03:33:32;5.15;;;2.63;;
57947;SDS011;43754;56.992;24.292;2023-04-24T03:36:05;5.35;;;2.20;;
57947;SDS011;43754;56.992;24.292;2023-04-24T03:38:44;5.40;;;2.80;;
57947;SDS011;43754;56.992;24.292;2023-04-24T03:41:30;7.97;;;3.00;;
57947;SDS011;43754;56.992;24.292;2023-04-24T03:44:14;4.85;;;2.35;;
57947;SDS011;43754;56.992;24.292;2023-04-24T03:46:46;4.32;;;2.85;;
57947;SDS011;43754;56.992;24.292;2023-04-24T03:49:19;4.38;;;2.70;;
57947;SDS011;43754;56.992;24.292;2023-04-24T03:51:52;3.83;;;2.90;;
57947;SDS011;43754;56.992;24.292;2023-04-24T03:54:27;5.45;;;2.95;;
57947;SDS011;43754;56.992;24.292;2023-04-24T03:57:00;5.57;;;2.60;;
57947;SDS011;43754;56.992;24.292;2023-04-24T03:59:35;5.78;;;2.55;;
57947;SDS011;43754;56.992;24.292;2023-04-24T04:02:14;4.65;;;2.10;;
57947;SDS011;43754;56.992;24.292;2023-04-24T04:04:47;7.25;;;2.70;;
57947;SDS011;43754;56.992;24.292;2023-04-24T04:07:19;5.20;;;2.40;;
57947;SDS011;43754;56.992;24.292;2023-04-24T04:09:51;6.43;;;2.80;;
57947;SDS011;43754;56.992;24.292;2023-04-24T04:12:24;4.97;;;2.13;;
57947;SDS011;43754;56.992;24.292;2023-04-24T04:14:57;8.45;;;2.92;;
57947;SDS011;43754;56.992;24.292;2023-04-24T04:17:29;4.43;;;2.60;;
57947;SDS011;43754;56.992;24.292;2023-04-24T04:20:03;12.80;;;2.83;;
57947;SDS011;43754;56.992;24.292;2023-04-24T04:22:41;4.90;;;2.65;;
57947;SDS011;43754;56.992;24.292;2023-04-24T04:25:20;4.88;;;2.60;;
57947;SDS011;43754;56.992;24.292;2023-04-24T04:27:53;9.13;;;3.22;;
57947;SDS011;43754;56.992;24.292;2023-04-24T04:30:26;5.78;;;2.92;;
57947;SDS011;43754;56.992;24.292;2023-04-24T04:33:06;7.07;;;3.20;;
57947;SDS011;43754;56.992;24.292;2023-04-24T04:35:40;4.65;;;2.53;;
57947;SDS011;43754;56.992;24.292;2023-04-24T04:38:13;8.32;;;3.40;;
57947;SDS011;43754;56.992;24.292;2023-04-24T04:40:51;9.95;;;3.00;;
57947;SDS011;43754;56.992;24.292;2023-04-24T04:43:26;10.45;;;3.13;;
57947;SDS011;43754;56.992;24.292;2023-04-24T04:45:59;7.18;;;3.00;;
57947;SDS011;43754;56.992;24.292;2023-04-24T04:48:44;5.05;;;3.28;;
57947;SDS011;43754;56.992;24.292;2023-04-24T04:51:17;8.50;;;3.28;;
57947;SDS011;43754;56.992;24.292;2023-04-24T04:53:49;13.40;;;3.60;;
57947;SDS011;43754;56.992;24.292;2023-04-24T04:56:21;8.63;;;3.10;;
57947;SDS011;43754;56.992;24.292;2023-04-24T04:58:55;4.68;;;3.10;;
57947;SDS011;43754;56.992;24.292;2023-04-24T05:01:27;7.28;;;2.60;;
57947;SDS011;43754;56.992;24.292;2023-04-24T05:04:00;8.35;;;3.20;;
57947;SDS011;43754;56.992;24.292;2023-04-24T05:06:32;14.18;;;2.72;;
57947;SDS011;43754;56.992;24.292;2023-04-24T05:09:04;6.60;;;4.07;;
57947;SDS011;43754;56.992;24.292;2023-04-24T05:11:43;5.47;;;3.42;;
57947;SDS011;43754;56.992;24.292;2023-04-24T05:14:17;5.97;;;3.40;;
57947;SDS011;43754;56.992;24.292;2023-04-24T05:16:50;15.70;;;3.47;;
57947;SDS011;43754;56.992;24.292;2023-04-24T05:19:24;7.55;;;3.10;;
57947;SDS011;43754;56.992;24.292;2023-04-24T05:21:57;7.15;;;2.90;;
57947;SDS011;43754;56.992;24.292;2023-04-24T05:24:29;7.55;;;3.63;;
57947;SDS011;43754;56.992;24.292;2023-04-24T05:27:01;7.00;;;3.03;;
57947;SDS011;43754;56.992;24.292;2023-04-24T05:29:40;8.68;;;3.17;;
57947;SDS011;43754;56.992;24.292;2023-04-24T05:32:13;21.55;;;4.20;;
57947;SDS011;43754;56.992;24.292;2023-04-24T05:34:45;10.23;;;3.50;;
57947;SDS011;43754;56.992;24.292;2023-04-24T05:37:18;6.93;;;3.35;;
57947;SDS011;43754;56.992;24.292;2023-04-24T05:39:50;8.30;;;3.53;;
57947;SDS011;43754;56.992;24.292;2023-04-24T05:42:22;8.15;;;3.15;;
57947;SDS011;43754;56.992;24.292;2023-04-24T05:44:56;7.13;;;2.83;;
57947;SDS011;43754;56.992;24.292;2023-04-24T05:47:28;11.77;;;3.55;;
57947;SDS011;43754;56.992;24.292;2023-04-24T05:50:01;6.05;;;3.00;;
57947;SDS011;43754;56.992;24.292;2023-04-24T05:52:34;9.15;;;2.95;;
57947;SDS011;43754;56.992;24.292;2023-04-24T05:55:10;10.15;;;3.85;;
57947;SDS011;43754;56.992;24.292;2023-04-24T05:57:44;5.82;;;3.00;;
57947;SDS011;43754;56.992;24.292;2023-04-24T06:00:17;9.27;;;3.22;;
57947;SDS011;43754;56.992;24.292;2023-04-24T06:02:59;6.20;;;3.20;;
57947;SDS011;43754;56.992;24.292;2023-04-24T06:05:32;4.78;;;3.10;;
57947;SDS011;43754;56.992;24.292;2023-04-24T06:08:06;4.63;;;3.10;;
57947;SDS011;43754;56.992;24.292;2023-04-24T06:10:42;7.80;;;2.97;;
57947;SDS011;43754;56.992;24.292;2023-04-24T06:13:15;9.32;;;3.38;;
57947;SDS011;43754;56.992;24.292;2023-04-24T06:16:01;9.68;;;3.90;;
57947;SDS011;43754;56.992;24.292;2023-04-24T06:18:38;10.05;;;3.63;;
57947;SDS011;43754;56.992;24.292;2023-04-24T06:21:11;5.88;;;3.75;;
57947;SDS011;43754;56.992;24.292;2023-04-24T06:23:43;10.82;;;3.80;;
57947;SDS011;43754;56.992;24.292;2023-04-24T06:26:15;6.55;;;3.30;;
57947;SDS011;43754;56.992;24.292;2023-04-24T06:28:47;5.82;;;3.53;;
57947;SDS011;43754;56.992;24.292;2023-04-24T06:31:21;14.73;;;3.65;;
57947;SDS011;43754;56.992;24.292;2023-04-24T06:33:53;7.20;;;3.70;;
57947;SDS011;43754;56.992;24.292;2023-04-24T06:36:25;11.20;;;3.80;;
57947;SDS011;43754;56.992;24.292;2023-04-24T06:38:57;8.60;;;3.42;;
57947;SDS011;43754;56.992;24.292;2023-04-24T06:41:29;10.55;;;3.30;;
57947;SDS011;43754;56.992;24.292;2023-04-24T06:44:01;12.85;;;4.57;;
57947;SDS011;43754;56.992;24.292;2023-04-24T06:46:35;10.90;;;4.45;;
57947;SDS011;43754;56.992;24.292;2023-04-24T06:49:08;8.98;;;3.67;;
57947;SDS011;43754;56.992;24.292;2023-04-24T06:51:41;14.77;;;3.67;;
57947;SDS011;43754;56.992;24.292;2023-04-24T06:54:13;9.77;;;4.20;;
57947;SDS011;43754;56.992;24.292;2023-04-24T06:56:45;8.00;;;3.40;;
57947;SDS011;43754;56.992;24.292;2023-04-24T06:59:19;10.45;;;3.70;;
57947;SDS011;43754;56.992;24.292;2023-04-24T07:01:52;9.43;;;3.63;;
57947;SDS011;43754;56.992;24.292;2023-04-24T07:04:26;5.95;;;3.85;;
57947;SDS011;43754;56.992;24.292;2023-04-24T07:06:58;12.77;;;4.18;;
57947;SDS011;43754;56.992;24.292;2023-04-24T07:09:30;10.15;;;3.63;;
57947;SDS011;43754;56.992;24.292;2023-04-24T07:12:04;18.52;;;4.40;;
57947;SDS011;43754;56.992;24.292;2023-04-24T07:14:39;10.27;;;4.00;;
57947;SDS011;43754;56.992;24.292;2023-04-24T07:17:13;8.00;;;3.45;;
57947;SDS011;43754;56.992;24.292;2023-04-24T07:19:46;6.82;;;3.80;;
57947;SDS011;43754;56.992;24.292;2023-04-24T07:22:18;6.55;;;3.80;;
57947;SDS011;43754;56.992;24.292;2023-04-24T07:24:50;11.18;;;3.58;;
57947;SDS011;43754;56.992;24.292;2023-04-24T07:27:22;6.85;;;3.80;;
57947;SDS011;43754;56.992;24.292;2023-04-24T07:29:54;8.98;;;4.03;;
57947;SDS011;43754;56.992;24.292;2023-04-24T07:32:27;19.33;;;3.78;;
57947;SDS011;43754;56.992;24.292;2023-04-24T07:34:59;6.82;;;3.40;;
57947;SDS011;43754;56.992;24.292;2023-04-24T07:37:31;19.13;;;4.70;;
57947;SDS011;43754;56.992;24.292;2023-04-24T07:40:03;7.97;;;4.57;;
57947;SDS011;43754;56.992;24.292;2023-04-24T07:42:36;5.00;;;3.45;;
57947;SDS011;43754;56.992;24.292;2023-04-24T07:45:08;19.25;;;8.35;;
57947;SDS011;43754;56.992;24.292;2023-04-24T07:47:42;13.13;;;5.78;;
57947;SDS011;43754;56.992;24.292;2023-04-24T07:50:17;6.85;;;4.25;;
57947;SDS011;43754;56.992;24.292;2023-04-24T07:52:49;9.02;;;3.50;;
57947;SDS011;43754;56.992;24.292;2023-04-24T07:55:21;5.05;;;3.30;;
57947;SDS011;43754;56.992;24.292;2023-04-24T07:57:56;8.05;;;3.20;;
57947;SDS011;43754;56.992;24.292;2023-04-24T08:00:28;11.23;;;4.57;;
57947;SDS011;43754;56.992;24.292;2023-04-24T08:03:02;10.05;;;3.78;;
57947;SDS011;43754;56.992;24.292;2023-04-24T08:05:34;10.55;;;3.97;;
57947;SDS011;43754;56.992;24.292;2023-04-24T08:08:10;13.65;;;4.28;;
57947;SDS011;43754;56.992;24.292;2023-04-24T08:10:42;16.42;;;4.35;;
57947;SDS011;43754;56.992;24.292;2023-04-24T08:13:14;7.30;;;3.90;;
57947;SDS011;43754;56.992;24.292;2023-04-24T08:15:46;9.27;;;4.03;;
57947;SDS011;43754;56.992;24.292;2023-04-24T08:18:20;7.05;;;3.80;;
57947;SDS011;43754;56.992;24.292;2023-04-24T08:20:52;5.68;;;3.85;;
57947;SDS011;43754;56.992;24.292;2023-04-24T08:23:24;13.75;;;3.83;;
57947;SDS011;43754;56.992;24.292;2023-04-24T08:25:56;16.63;;;4.18;;
57947;SDS011;43754;56.992;24.292;2023-04-24T08:28:29;14.90;;;3.90;;
57947;SDS011;43754;56.992;24.292;2023-04-24T08:31:01;10.35;;;3.67;;
57947;SDS011;43754;56.992;24.292;2023-04-24T08:33:34;10.02;;;3.90;;
57947;SDS011;43754;56.992;24.292;2023-04-24T08:36:06;6.97;;;4.32;;
57947;SDS011;43754;56.992;24.292;2023-04-24T08:38:39;8.02;;;4.18;;
57947;SDS011;43754;56.992;24.292;2023-04-24T08:41:14;20.45;;;4.47;;
57947;SDS011;43754;56.992;24.292;2023-04-24T08:43:47;14.30;;;3.80;;
57947;SDS011;43754;56.992;24.292;2023-04-24T08:46:20;16.58;;;4.70;;
57947;SDS011;43754;56.992;24.292;2023-04-24T08:48:54;8.73;;;3.78;;
57947;SDS011;43754;56.992;24.292;2023-04-24T08:51:26;6.85;;;3.78;;
57947;SDS011;43754;56.992;24.292;2023-04-24T08:54:02;13.82;;;3.90;;
57947;SDS011;43754;56.992;24.292;2023-04-24T08:56:36;6.25;;;4.07;;
57947;SDS011;43754;56.992;24.292;2023-04-24T08:59:10;11.93;;;4.88;;
57947;SDS011;43754;56.992;24.292;2023-04-24T09:01:43;11.88;;;5.32;;
57947;SDS011;43754;56.992;24.292;2023-04-24T09:04:18;8.73;;;3.90;;
57947;SDS011;43754;56.992;24.292;2023-04-24T09:06:55;10.95;;;5.45;;
57947;SDS011;43754;56.992;24.292;2023-04-24T09:09:28;11.75;;;5.30;;
57947;SDS011;43754;56.992;24.292;2023-04-24T09:12:04;9.85;;;4.40;;
57947;SDS011;43754;56.992;24.292;2023-04-24T09:14:36;12.95;;;4.28;;
57947;SDS011;43754;56.992;24.292;2023-04-24T09:17:10;33.97;;;5.63;;
57947;SDS011;43754;56.992;24.292;2023-04-24T09:19:44;14.13;;;6.40;;
57947;SDS011;43754;56.992;24.292;2023-04-24T09:22:16;11.65;;;6.40;;
57947;SDS011;43754;56.992;24.292;2023-04-24T09:24:48;12.68;;;6.57;;
57947;SDS011;43754;56.992;24.292;2023-04-24T09:27:33;20.52;;;8.10;;
57947;SDS011;43754;56.992;24.292;2023-04-24T09:30:05;20.65;;;8.00;;
57947;SDS011;43754;56.992;24.292;2023-04-24T09:32:39;12.35;;;6.50;;
57947;SDS011;43754;56.992;24.292;2023-04-24T09:35:13;8.60;;;5.10;;
57947;SDS011;43754;56.992;24.292;2023-04-24T09:37:47;9.80;;;4.80;;
57947;SDS011;43754;56.992;24.292;2023-04-24T09:40:21;8.85;;;4.13;;
57947;SDS011;43754;56.992;24.292;2023-04-24T09:42:55;12.63;;;4.55;;
57947;SDS011;43754;56.992;24.292;2023-04-24T09:45:35;14.40;;;6.13;;
57947;SDS011;43754;56.992;24.292;2023-04-24T09:48:08;9.90;;;4.22;;
57947;SDS011;43754;56.992;24.292;2023-04-24T09:50:44;9.00;;;4.50;;
57947;SDS011;43754;56.992;24.292;2023-04-24T09:53:18;8.02;;;4.35;;
57947;SDS011;43754;56.992;24.292;2023-04-24T09:55:56;7.38;;;4.40;;
57947;SDS011;43754;56.992;24.292;2023-04-24T09:58:28;13.23;;;5.40;;
57947;SDS011;43754;56.992;24.292;2023-04-24T10:01:00;16.20;;;4.47;;
57947;SDS011;43754;56.992;24.292;2023-04-24T10:03:33;10.93;;;4.30;;
57947;SDS011;43754;56.992;24.292;2023-04-24T10:06:06;9.68;;;3.95;;
57947;SDS011;43754;56.992;24.292;2023-04-24T10:08:42;8.43;;;4.38;;
57947;SDS011;43754;56.992;24.292;2023-04-24T10:11:14;9.45;;;4.10;;
57947;SDS011;43754;56.992;24.292;2023-04-24T10:13:47;10.70;;;4.10;;
57947;SDS011;43754;56.992;24.292;2023-04-24T10:16:19;8.70;;;4.28;;
57947;SDS011;43754;56.992;24.292;2023-04-24T10:18:53;7.40;;;4.30;;
57947;SDS011;43754;56.992;24.292;2023-04-24T10:21:28;6.82;;;3.70;;
57947;SDS011;43754;56.992;24.292;2023-04-24T10:24:00;14.70;;;4.63;;
57947;SDS011;43754;56.992;24.292;2023-04-24T10:26:35;8.63;;;3.97;;
57947;SDS011;43754;56.992;24.292;2023-04-24T10:29:08;8.63;;;3.90;;
57947;SDS011;43754;56.992;24.292;2023-04-24T10:31:43;9.50;;;4.32;;
57947;SDS011;43754;56.992;24.292;2023-04-24T10:34:19;10.18;;;3.90;;
57947;SDS011;43754;56.992;24.292;2023-04-24T10:36:54;6.25;;;3.75;;
57947;SDS011;43754;56.992;24.292;2023-04-24T10:39:28;9.85;;;3.90;;
57947;SDS011;43754;56.992;24.292;2023-04-24T10:42:02;10.95;;;3.58;;
57947;SDS011;43754;56.992;24.292;2023-04-24T10:44:48;10.23;;;3.75;;
57947;SDS011;43754;56.992;24.292;2023-04-24T10:47:21;6.25;;;3.97;;
57947;SDS011;43754;56.992;24.292;2023-04-24T10:49:53;10.93;;;3.80;;
57947;SDS011;43754;56.992;24.292;2023-04-24T10:52:31;7.65;;;3.92;;
57947;SDS011;43754;56.992;24.292;2023-04-24T10:55:15;6.07;;;3.58;;
57947;SDS011;43754;56.992;24.292;2023-04-24T11:00:36;12.35;;;3.42;;
57947;SDS011;43754;56.992;24.292;2023-04-24T11:03:22;6.72;;;3.65;;
57947;SDS011;43754;56.992;24.292;2023-04-24T11:05:57;12.32;;;3.80;;
57947;SDS011;43754;56.992;24.292;2023-04-24T11:08:36;10.45;;;3.90;;
57947;SDS011;43754;56.992;24.292;2023-04-24T11:11:10;9.23;;;4.40;;
57947;SDS011;43754;56.992;24.292;2023-04-24T11:14:02;7.53;;;3.72;;
57947;SDS011;43754;56.992;24.292;2023-04-24T11:16:39;10.32;;;4.03;;
57947;SDS011;43754;56.992;24.292;2023-04-24T11:19:20;6.15;;;3.80;;
57947;SDS011;43754;56.992;24.292;2023-04-24T11:21:57;6.43;;;3.75;;
57947;SDS011;43754;56.992;24.292;2023-04-24T11:24:37;8.40;;;3.70;;
57947;SDS011;43754;56.992;24.292;2023-04-24T11:27:17;7.90;;;3.95;;
57947;SDS011;43754;56.992;24.292;2023-04-24T11:29:58;9.60;;;3.80;;
57947;SDS011;43754;56.992;24.292;2023-04-24T11:32:34;4.50;;;3.53;;
57947;SDS011;43754;56.992;24.292;2023-04-24T11:35:13;8.50;;;3.85;;
57947;SDS011;43754;56.992;24.292;2023-04-24T11:37:47;14.38;;;3.95;;
57947;SDS011;43754;56.992;24.292;2023-04-24T11:40:44;10.27;;;4.68;;
57947;SDS011;43754;56.992;24.292;2023-04-24T11:43:17;10.85;;;4.15;;
57947;SDS011;43754;56.992;24.292;2023-04-24T11:45:51;12.93;;;4.15;;
57947;SDS011;43754;56.992;24.292;2023-04-24T11:48:23;10.00;;;4.60;;
57947;SDS011;43754;56.992;24.292;2023-04-24T11:50:55;5.70;;;4.15;;
57947;SDS011;43754;56.992;24.292;2023-04-24T11:53:28;9.30;;;3.83;;
57947;SDS011;43754;56.992;24.292;2023-04-24T11:56:04;6.88;;;3.97;;
57947;SDS011;43754;56.992;24.292;2023-04-24T11:58:37;13.82;;;4.80;;
57947;SDS011;43754;56.992;24.292;2023-04-24T12:01:09;11.55;;;4.97;;
57947;SDS011;43754;56.992;24.292;2023-04-24T12:03:41;13.48;;;5.40;;
57947;SDS011;43754;56.992;24.292;2023-04-24T12:06:18;12.50;;;5.80;;
57947;SDS011;43754;56.992;24.292;2023-04-24T12:08:51;11.68;;;4.97;;
57947;SDS011;43754;56.992;24.292;2023-04-24T12:11:26;12.98;;;5.80;;
57947;SDS011;43754;56.992;24.292;2023-04-24T12:14:02;17.95;;;6.43;;
57947;SDS011;43754;56.992;24.292;2023-04-24T12:16:41;11.38;;;6.00;;
57947;SDS011;43754;56.992;24.292;2023-04-24T12:19:20;10.10;;;5.50;;
57947;SDS011;43754;56.992;24.292;2023-04-24T12:21:59;24.85;;;5.95;;
57947;SDS011;43754;56.992;24.292;2023-04-24T12:24:32;18.38;;;6.90;;
57947;SDS011;43754;56.992;24.292;2023-04-24T12:27:05;15.95;;;7.05;;
57947;SDS011;43754;56.992;24.292;2023-04-24T12:29:37;21.02;;;6.43;;
57947;SDS011;43754;56.992;24.292;2023-04-24T12:32:23;18.85;;;6.13;;
57947;SDS011;43754;56.992;24.292;2023-04-24T12:34:58;75.47;;;7.68;;
57947;SDS011;43754;56.992;24.292;2023-04-24T12:37:32;19.50;;;6.63;;
57947;SDS011;43754;56.992;24.292;2023-04-24T12:40:06;18.10;;;5.72;;
57947;SDS011;43754;56.992;24.292;2023-04-24T12:42:43;14.32;;;5.05;;
57947;SDS011;43754;56.992;24.292;2023-04-24T12:45:17;15.18;;;5.47;;
57947;SDS011;43754;56.992;24.292;2023-04-24T12:47:50;8.15;;;4.35;;
57947;SDS011;43754;56.992;24.292;2023-04-24T12:50:22;13.77;;;5.70;;
57947;SDS011;43754;56.992;24.292;2023-04-24T12:52:54;22.63;;;6.30;;
57947;SDS011;43754;56.992;24.292;2023-04-24T12:55:26;13.05;;;5.53;;
57947;SDS011;43754;56.992;24.292;2023-04-24T12:57:59;21.15;;;6.13;;
57947;SDS011;43754;56.992;24.292;2023-04-24T13:00:32;16.90;;;6.35;;
57947;SDS011;43754;56.992;24.292;2023-04-24T13:03:04;17.00;;;6.68;;
57947;SDS011;43754;56.992;24.292;2023-04-24T13:05:36;19.35;;;7.00;;
57947;SDS011;43754;56.992;24.292;2023-04-24T13:08:09;18.23;;;7.32;;
57947;SDS011;43754;56.992;24.292;2023-04-24T13:10:41;12.20;;;6.22;;
57947;SDS011;43754;56.992;24.292;2023-04-24T13:13:15;12.35;;;5.40;;
57947;SDS011;43754;56.992;24.292;2023-04-24T13:15:47;16.05;;;5.80;;
57947;SDS011;43754;56.992;24.292;2023-04-24T13:18:19;13.63;;;6.20;;
57947;SDS011;43754;56.992;24.292;2023-04-24T13:20:51;16.40;;;5.47;;
57947;SDS011;43754;56.992;24.292;2023-04-24T13:23:23;13.43;;;6.03;;
57947;SDS011;43754;56.992;24.292;2023-04-24T13:25:55;14.95;;;6.32;;
57947;SDS011;43754;56.992;24.292;2023-04-24T13:28:31;18.33;;;6.30;;
57947;SDS011;43754;56.992;24.292;2023-04-24T13:31:03;13.65;;;5.63;;
57947;SDS011;43754;56.992;24.292;2023-04-24T13:33:35;19.45;;;5.38;;
57947;SDS011;43754;56.992;24.292;2023-04-24T13:36:07;15.55;;;5.80;;
57947;SDS011;43754;56.992;24.292;2023-04-24T13:38:39;15.65;;;6.18;;
57947;SDS011;43754;56.992;24.292;2023-04-24T13:41:11;12.02;;;5.50;;
57947;SDS011;43754;56.992;24.292;2023-04-24T13:43:45;22.50;;;6.93;;
57947;SDS011;43754;56.992;24.292;2023-04-24T13:46:17;16.45;;;6.28;;
57947;SDS011;43754;56.992;24.292;2023-04-24T13:48:49;15.77;;;6.50;;
57947;SDS011;43754;56.992;24.292;2023-04-24T13:51:21;14.27;;;6.35;;
57947;SDS011;43754;56.992;24.292;2023-04-24T13:53:53;17.92;;;6.60;;
57947;SDS011;43754;56.992;24.292;2023-04-24T13:56:26;20.52;;;6.35;;
57947;SDS011;43754;56.992;24.292;2023-04-24T13:58:59;22.95;;;6.32;;
57947;SDS011;43754;56.992;24.292;2023-04-24T14:01:31;15.73;;;6.65;;
57947;SDS011;43754;56.992;24.292;2023-04-24T14:04:04;16.95;;;6.20;;
57947;SDS011;43754;56.992;24.292;2023-04-24T14:06:36;12.60;;;6.22;;
57947;SDS011;43754;56.992;24.292;2023-04-24T14:09:08;13.55;;;5.53;;
57947;SDS011;43754;56.992;24.292;2023-04-24T14:11:40;17.08;;;7.25;;
57947;SDS011;43754;56.992;24.292;2023-04-24T14:14:13;18.23;;;6.05;;
57947;SDS011;43754;56.992;24.292;2023-04-24T14:16:46;18.33;;;5.50;;
57947;SDS011;43754;56.992;24.292;2023-04-24T14:19:18;18.85;;;6.22;;
57947;SDS011;43754;56.992;24.292;2023-04-24T14:21:50;15.48;;;5.68;;
57947;SDS011;43754;56.992;24.292;2023-04-24T14:24:22;18.75;;;5.93;;
57947;SDS011;43754;56.992;24.292;2023-04-24T14:26:54;14.50;;;5.70;;
57947;SDS011;43754;56.992;24.292;2023-04-24T14:29:29;21.58;;;6.53;;
57947;SDS011;43754;56.992;24.292;2023-04-24T14:32:01;13.40;;;5.38;;
57947;SDS011;43754;56.992;24.292;2023-04-24T14:34:33;17.63;;;5.65;;
57947;SDS011;43754;56.992;24.292;2023-04-24T14:37:05;16.95;;;5.47;;
57947;SDS011;43754;56.992;24.292;2023-04-24T14:39:37;12.82;;;5.25;;
57947;SDS011;43754;56.992;24.292;2023-04-24T14:42:09;19.65;;;5.57;;
57947;SDS011;43754;56.992;24.292;2023-04-24T14:44:42;14.70;;;6.03;;
57947;SDS011;43754;56.992;24.292;2023-04-24T14:47:14;10.40;;;5.15;;
57947;SDS011;43754;56.992;24.292;2023-04-24T14:49:46;13.15;;;5.20;;
57947;SDS011;43754;56.992;24.292;2023-04-24T14:52:18;10.05;;;4.63;;
57947;SDS011;43754;56.992;24.292;2023-04-24T14:54:50;12.52;;;5.72;;
57947;SDS011;43754;56.992;24.292;2023-04-24T14:57:22;15.88;;;4.93;;
57947;SDS011;43754;56.992;24.292;2023-04-24T14:59:56;12.55;;;4.88;;
57947;SDS011;43754;56.992;24.292;2023-04-24T15:02:28;17.08;;;5.38;;
57947;SDS011;43754;56.992;24.292;2023-04-24T15:05:00;13.70;;;5.93;;
57947;SDS011;43754;56.992;24.292;2023-04-24T15:07:33;17.27;;;5.22;;
57947;SDS011;43754;56.992;24.292;2023-04-24T15:10:07;19.65;;;5.70;;